LGTS/SKG METAR and TAF weather

Enter ICAO airport designator
Station Type Date Time Source
LGTS METAR 2019/10/15 21:20 UTC NOAA

LGTS 152120Z 11005KT CAVOK 15/12 Q1018 NOSIG


Station Type Date Time Source
LGTS Decoded METAR 2019/10/15 21:20 UTC NOAA

Thessaloniki Airport , Greece (LGTS) 40-31N 022-58E 4M
Oct 15, 2019 - 05:20 PM EDT / 2019.10.15 2120 UTC
Wind: from the ESE (110 degrees) at 6 MPH (5 KT):0
Visibility: greater than 7 mile(s):0
Temperature: 59 F (15 C)
Dew Point: 53 F (12 C)
Relative Humidity: 82%
Pressure (altimeter): 30.06 in. Hg (1018 hPa)
ob: LGTS 152120Z 11005KT CAVOK 15/12 Q1018 NOSIG
cycle: 21

Station Type Date Time Source
LGTS TAF 2019/10/15 18:12 UTC NOAA

TAF LGTS 151700Z 1518/1618 VRB03KT CAVOK PROB40 1602/1606 5000 BR SCT010

Example: see airport list